Аэропорт: Якутск. Якутск

ICAO: UEEE

METAR:
2020-06-01 01:30:00
UEEE 010130Z 13004MPS CAVOK 15/M01 Q1009 R23L/09//60 NOSIG RMK QFE748
METAR:
2020-05-31 23:00:00
TAF UEEE 312300Z 0100/0206 29003G08MPS 9999 SCT030CB BKN100 PROB40 TEMPO 0103/0112 VRB14MPS -TSRA